GCHI/VDE METAR and TAF weather

Enter ICAO airport designator
Station Type Date Time Source
GCHI METAR 2021/03/03 02:30 UTC NOAA

GCHI 030230Z AUTO 06014KT CAVOK 18/13 Q1022


Station Type Date Time Source
GCHI Decoded METAR 2021/03/03 02:30 UTC NOAA

Hierro / Aeropuerto, Spain (GCHI) 27-49N 017-53W 32M
Mar 02, 2021 - 09:30 PM EST / 2021.03.03 0230 UTC
Wind: from the ENE (060 degrees) at 16 MPH (14 KT):0
Visibility: greater than 7 mile(s):0
Temperature: 64 F (18 C)
Dew Point: 55 F (13 C)
Relative Humidity: 72%
Pressure (altimeter): 30.18 in. Hg (1022 hPa)
ob: GCHI 030230Z AUTO 06014KT CAVOK 18/13 Q1022
cycle: 2

Station Type Date Time Source
GCHI TAF 2021/03/03 03:00 UTC NOAA

TAF GCHI 030200Z 0303/0403 03014KT 9999 SCT025 TX21/0314Z TN17/0307Z PROB30
TEMPO 0307/0314 09008KT

Example: see airport list